Time;durP1;ratioP1;P1;durP2;ratioP2;P2;SDS_P1;SDS_P2;PMS_P1;PMS_P2;Temp;Humidity;BMP_temperature;BMP_pressure;BME280_temperature;BME280_humidity;BME280_pressure;Samples;Min_cycle;Max_cycle;Signal;HPM_P1;HPM_P2
2023/10/24 00:00:45;;;;;;;;;;;;;;;16.10;70.89;100164.25;5424803;32;35088;-70
2023/10/24 00:03:47;;;;;;;;;;;;;;;15.85;72.77;100178.25;5442959;32;34369;-70
2023/10/24 00:06:49;;;;;;;;;;;;;;;16.22;70.95;100166.06;5442032;32;35307;-70
2023/10/24 00:09:51;;;;;;;;;;;;;;;15.21;74.78;100171.66;5425771;32;35406;-70
2023/10/24 00:12:53;;;;;;;;;;;;;;;15.35;75.06;100165.50;5440324;32;35593;-69
2023/10/24 00:15:56;;;;;;;;;;;;;;;15.27;75.63;100167.78;5445895;32;34524;-70
2023/10/24 00:18:58;;;;;;;;;;;;;;;16.07;71.57;100166.25;5442144;32;35133;-69
2023/10/24 00:22:00;;;;;;;;;;;;;;;16.32;70.04;100155.72;5441500;32;35216;-70
2023/10/24 00:25:03;;;;;;;;;;;;;;;15.83;71.72;100147.47;5450860;32;34540;-70
2023/10/24 00:28:05;;;;;;;;;;;;;;;15.47;73.68;100143.56;5444606;32;34444;-70
2023/10/24 00:31:07;;;;;;;;;;;;;;;15.45;73.99;100132.19;5447364;32;34824;-71
2023/10/24 00:34:12;;;;;;;;;;;;;;;15.65;72.09;100129.19;5440994;32;35266;-69
2023/10/24 00:37:14;;;;;;;;;;;;;;;15.00;75.69;100125.31;5426762;32;34642;-69
2023/10/24 00:40:18;;;;;;;;;;;;;;;14.87;75.81;100114.63;5444155;32;35198;-69
2023/10/24 00:43:20;;;;;;;;;;;;;;;15.15;75.76;100098.78;5441277;32;35254;-71
2023/10/24 00:46:23;;;;;;;;;;;;;;;15.18;75.62;100084.47;5445508;32;34364;-69
2023/10/24 00:49:25;;;;;;;;;;;;;;;15.01;73.87;100080.25;5440116;32;35023;-70
2023/10/24 00:52:27;;;;;;;;;;;;;;;16.10;69.93;100094.44;5431897;32;34949;-69
2023/10/24 00:55:30;;;;;;;;;;;;;;;14.61;74.12;100090.59;5427135;32;35725;-70
2023/10/24 00:58:33;;;;;;;;;;;;;;;14.85;76.00;100096.22;5443870;32;34975;-71
2023/10/24 01:01:35;;;;;;;;;;;;;;;14.12;78.08;100105.88;5426438;32;34413;-69
2023/10/24 01:04:37;;;;;;;;;;;;;;;14.53;77.25;100106.09;5435553;32;35026;-70
2023/10/24 01:07:39;;;;;;;;;;;;;;;15.00;74.04;100118.22;5445585;32;35521;-69
2023/10/24 01:10:42;;;;;;;;;;;;;;;14.81;75.36;100109.72;5441227;32;34970;-70
2023/10/24 01:13:44;;;;;;;;;;;;;;;15.26;74.14;100123.69;5446031;32;34996;-70
2023/10/24 01:16:46;;;;;;;;;;;;;;;15.81;70.48;100150.22;5409111;32;34522;-70
2023/10/24 01:19:51;;;;;;;;;;;;;;;14.88;73.85;100146.31;5428766;32;35739;-71
2023/10/24 01:22:54;;;;;;;;;;;;;;;14.87;74.38;100138.44;5444541;32;35487;-70
2023/10/24 01:25:56;;;;;;;;;;;;;;;15.00;73.68;100139.41;5433614;32;35315;-70
2023/10/24 01:28:58;;;;;;;;;;;;;;;14.59;76.14;100142.75;5428739;32;35087;-69
2023/10/24 01:32:00;;;;;;;;;;;;;;;14.67;75.74;100144.09;5440761;32;34458;-69
2023/10/24 01:35:02;;;;;;;;;;;;;;;14.66;76.73;100126.53;5445520;32;34721;-69
2023/10/24 01:38:05;;;;;;;;;;;;;;;14.39;77.47;100126.34;5434963;32;35475;-69
2023/10/24 01:41:07;;;;;;;;;;;;;;;15.21;73.87;100109.91;5424148;32;34402;-70
2023/10/24 01:44:09;;;;;;;;;;;;;;;15.01;73.92;100108.53;5444001;32;35349;-69
2023/10/24 01:47:11;;;;;;;;;;;;;;;15.06;73.69;100109.06;5440229;32;35985;-70
2023/10/24 01:50:13;;;;;;;;;;;;;;;15.13;73.16;100095.38;5444914;32;34396;-70
2023/10/24 01:53:15;;;;;;;;;;;;;;;15.58;71.37;100109.25;5439601;32;34271;-70
2023/10/24 01:56:17;;;;;;;;;;;;;;;15.08;72.53;100102.75;5430430;32;34875;-70
2023/10/24 01:59:19;;;;;;;;;;;;;;;14.83;73.90;100114.00;5442625;32;35206;-70
2023/10/24 02:02:22;;;;;;;;;;;;;;;14.37;76.57;100105.28;5441382;32;34478;-70
2023/10/24 02:05:24;;;;;;;;;;;;;;;14.53;75.44;100084.09;5426446;32;34444;-69
2023/10/24 02:08:26;;;;;;;;;;;;;;;14.34;76.46;100089.59;5442820;32;35825;-70
2023/10/24 02:11:28;;;;;;;;;;;;;;;14.12;77.64;100099.75;5446628;32;36839;-69
2023/10/24 02:14:31;;;;;;;;;;;;;;;15.03;73.40;100085.44;5442439;32;34737;-70
2023/10/24 02:17:33;;;;;;;;;;;;;;;14.61;74.15;100081.81;5447047;32;34682;-69
2023/10/24 02:20:37;;;;;;;;;;;;;;;15.08;73.21;100070.97;5442622;32;34742;-70
2023/10/24 02:23:39;;;;;;;;;;;;;;;15.07;72.95;100074.59;5442507;32;34377;-71
2023/10/24 02:26:41;;;;;;;;;;;;;;;14.95;73.25;100079.78;5447582;32;35185;-70
2023/10/24 02:29:43;;;;;;;;;;;;;;;14.60;75.15;100080.13;5442140;32;34980;-69
2023/10/24 02:32:45;;;;;;;;;;;;;;;15.17;72.37;100085.44;5446410;32;34467;-69
2023/10/24 02:35:47;;;;;;;;;;;;;;;14.86;72.92;100105.00;5441869;32;34167;-69
2023/10/24 02:38:50;;;;;;;;;;;;;;;14.58;73.92;100096.09;5438511;32;34221;-70
2023/10/24 02:41:52;;;;;;;;;;;;;;;13.93;77.43;100099.94;5442767;32;34287;-70
2023/10/24 02:44:54;;;;;;;;;;;;;;;14.37;75.69;100094.72;5442883;32;34275;-69
2023/10/24 02:47:56;;;;;;;;;;;;;;;14.48;74.86;100096.72;5432254;32;34859;-70
2023/10/24 02:50:58;;;;;;;;;;;;;;;14.49;75.20;100098.44;5441866;32;35381;-70
2023/10/24 02:54:01;;;;;;;;;;;;;;;14.54;74.11;100085.78;5432375;32;34839;-71
2023/10/24 02:57:03;;;;;;;;;;;;;;;14.03;76.54;100083.47;5442232;32;34238;-69
2023/10/24 03:00:05;;;;;;;;;;;;;;;14.53;74.79;100066.44;5446244;32;35158;-70
2023/10/24 03:03:07;;;;;;;;;;;;;;;14.86;72.76;100081.19;5439550;32;36217;-70
2023/10/24 03:06:16;;;;;;;;;;;;;;;14.39;74.23;100066.38;5413099;32;35544;-69
2023/10/24 03:09:19;;;;;;;;;;;;;;;13.87;77.76;100050.97;5446853;32;35084;-69
2023/10/24 03:12:21;;;;;;;;;;;;;;;13.95;76.23;100035.50;5427561;32;35391;-69
2023/10/24 03:15:23;;;;;;;;;;;;;;;14.83;72.88;100031.13;5446695;32;35477;-69
2023/10/24 03:18:25;;;;;;;;;;;;;;;14.70;72.56;100031.03;5423666;32;35428;-70
2023/10/24 03:21:27;;;;;;;;;;;;;;;14.71;72.09;100019.50;5432136;32;35332;-70
2023/10/24 03:24:29;;;;;;;;;;;;;;;14.21;74.37;100011.97;5444096;32;35364;-70
2023/10/24 03:27:31;;;;;;;;;;;;;;;14.16;75.04;100006.09;5442995;32;34464;-70
2023/10/24 03:30:34;;;;;;;;;;;;;;;14.43;74.34;100003.59;5448494;32;35001;-68
2023/10/24 03:33:36;;;;;;;;;;;;;;;15.10;70.70;100016.16;5441235;32;35422;-69
2023/10/24 03:36:38;;;;;;;;;;;;;;;14.57;71.95;100038.03;5446315;32;34473;-69
2023/10/24 03:39:40;;;;;;;;;;;;;;;14.60;71.37;100048.41;5441134;32;34983;-70
2023/10/24 03:42:42;;;;;;;;;;;;;;;14.79;70.99;100038.38;5445132;32;34369;-70
2023/10/24 03:45:45;;;;;;;;;;;;;;;13.93;75.75;100047.13;5429340;32;36036;-70
2023/10/24 03:48:47;;;;;;;;;;;;;;;14.07;75.56;100050.63;5441835;32;34936;-70
2023/10/24 03:51:49;;;;;;;;;;;;;;;14.55;72.89;100042.53;5447236;32;34809;-69
2023/10/24 03:54:51;;;;;;;;;;;;;;;14.56;72.48;100026.59;5428594;32;34704;-70
2023/10/24 03:57:53;;;;;;;;;;;;;;;14.35;72.89;100039.25;5432964;32;34472;-70
2023/10/24 04:01:01;;;;;;;;;;;;;;;14.00;75.14;100044.00;5438407;32;35515;-70
2023/10/24 04:04:03;;;;;;;;;;;;;;;14.49;73.50;100029.69;5441681;32;34383;-70
2023/10/24 04:07:05;;;;;;;;;;;;;;;14.75;71.66;100021.03;5430588;32;34303;-69
2023/10/24 04:10:08;;;;;;;;;;;;;;;14.85;71.08;100026.56;5442265;32;34272;-70
2023/10/24 04:13:10;;;;;;;;;;;;;;;14.22;73.54;100026.87;5426954;32;34392;-69
2023/10/24 04:16:12;;;;;;;;;;;;;;;14.30;74.19;100014.94;5441275;32;34843;-70
2023/10/24 04:19:15;;;;;;;;;;;;;;;14.54;73.09;100017.03;5447004;32;34224;-69
2023/10/24 04:22:17;;;;;;;;;;;;;;;14.87;71.42;100014.94;5442482;32;34980;-70
2023/10/24 04:25:19;;;;;;;;;;;;;;;14.60;72.11;100008.72;5449837;32;35085;-71
2023/10/24 04:28:21;;;;;;;;;;;;;;;14.45;72.91;100013.13;5430109;32;35668;-71
2023/10/24 04:31:24;;;;;;;;;;;;;;;14.23;74.75;100015.34;5414618;32;34671;-70
2023/10/24 04:34:26;;;;;;;;;;;;;;;14.34;74.12;100032.28;5446486;32;34713;-72
2023/10/24 04:37:28;;;;;;;;;;;;;;;15.10;69.93;100028.53;5439028;32;35161;-69
2023/10/24 04:40:30;;;;;;;;;;;;;;;14.90;70.33;100029.78;5446887;32;35506;-70
2023/10/24 04:43:33;;;;;;;;;;;;;;;15.10;69.52;100034.66;5426988;32;34273;-71
2023/10/24 04:46:35;;;;;;;;;;;;;;;14.75;71.37;100041.31;5441861;32;34879;-70
2023/10/24 04:49:38;;;;;;;;;;;;;;;14.80;71.31;100040.06;5444828;32;34920;-70
2023/10/24 04:52:40;;;;;;;;;;;;;;;14.07;74.26;100055.94;5426119;32;34660;-69
2023/10/24 04:55:42;;;;;;;;;;;;;;;14.14;74.59;100034.41;5431481;32;34814;-70
2023/10/24 04:58:44;;;;;;;;;;;;;;;14.52;72.64;100029.50;5434566;32;35097;-70
2023/10/24 05:01:47;;;;;;;;;;;;;;;15.07;69.80;100026.94;5443033;32;35323;-71
2023/10/24 05:04:49;;;;;;;;;;;;;;;13.68;75.73;100027.41;5425539;32;35840;-70
2023/10/24 05:07:51;;;;;;;;;;;;;;;14.17;74.96;100021.88;5434715;32;34625;-69
2023/10/24 05:10:53;;;;;;;;;;;;;;;14.78;70.90;100025.25;5444798;32;34852;-69
2023/10/24 05:13:55;;;;;;;;;;;;;;;14.69;70.77;100024.03;5440150;32;34328;-70
2023/10/24 05:16:57;;;;;;;;;;;;;;;14.70;71.07;100027.53;5445594;32;35501;-68
2023/10/24 05:20:07;;;;;;;;;;;;;;;14.80;70.15;100020.72;5441720;32;37592;-70
2023/10/24 05:23:09;;;;;;;;;;;;;;;14.44;71.95;100022.00;5441998;32;35470;-70
2023/10/24 05:26:11;;;;;;;;;;;;;;;14.77;70.98;100027.06;5443857;32;35210;-70
2023/10/24 05:29:13;;;;;;;;;;;;;;;14.54;71.59;100017.88;5448090;32;34353;-69
2023/10/24 05:32:15;;;;;;;;;;;;;;;14.59;71.64;100026.38;5444281;32;34698;-71
2023/10/24 05:35:17;;;;;;;;;;;;;;;14.74;71.06;100029.88;5421112;32;34989;-71
2023/10/24 05:38:19;;;;;;;;;;;;;;;13.69;75.28;100021.16;5422579;32;34421;-67
2023/10/24 05:41:23;;;;;;;;;;;;;;;14.21;74.01;100020.75;5420376;32;34464;-66
2023/10/24 05:44:25;;;;;;;;;;;;;;;14.61;72.28;100018.34;5441548;32;35291;-69
2023/10/24 05:47:27;;;;;;;;;;;;;;;15.07;69.03;100021.66;5432215;32;34826;-66
2023/10/24 05:50:30;;;;;;;;;;;;;;;14.72;70.54;100015.91;5432888;32;35246;-65
2023/10/24 05:53:32;;;;;;;;;;;;;;;14.53;71.82;100016.19;5432845;32;34274;-70
2023/10/24 05:56:37;;;;;;;;;;;;;;;15.07;68.78;100016.34;5421457;32;35288;-68
2023/10/24 05:59:39;;;;;;;;;;;;;;;14.84;69.74;100019.59;5432930;32;34370;-69
2023/10/24 06:02:46;;;;;;;;;;;;;;;14.89;69.73;100031.59;5431614;32;35690;-72
2023/10/24 06:05:49;;;;;;;;;;;;;;;13.85;73.94;100031.72;5417389;32;34396;-68
2023/10/24 06:08:57;;;;;;;;;;;;;;;14.19;73.62;100027.06;5436373;32;34381;-70
2023/10/24 06:11:59;;;;;;;;;;;;;;;14.50;71.96;100026.13;5420835;32;35535;-69
2023/10/24 06:15:03;;;;;;;;;;;;;;;15.11;69.94;100036.38;5420768;32;34897;-68
2023/10/24 06:18:05;;;;;;;;;;;;;;;14.80;69.86;100033.94;5411069;32;35315;-62
2023/10/24 06:21:07;;;;;;;;;;;;;;;15.81;67.37;100044.22;5438460;32;34158;-70
2023/10/24 06:24:09;;;;;;;;;;;;;;;15.51;67.73;100040.91;5434321;32;34245;-68
2023/10/24 06:27:13;;;;;;;;;;;;;;;15.71;67.44;100043.13;5435076;32;35555;-71
2023/10/24 06:30:17;;;;;;;;;;;;;;;15.81;66.16;100038.09;5438501;32;36863;-73
2023/10/24 06:33:20;;;;;;;;;;;;;;;16.39;63.49;100037.66;5429009;32;35559;-77
2023/10/24 06:36:22;;;;;;;;;;;;;;;16.03;64.66;100029.53;5440234;32;35480;-79
2023/10/24 06:39:25;;;;;;;;;;;;;;;17.25;59.47;100024.50;5433660;32;35330;-68
2023/10/24 06:42:30;;;;;;;;;;;;;;;17.80;58.48;100022.28;5422254;32;34900;-72
2023/10/24 06:45:32;;;;;;;;;;;;;;;16.65;60.48;100029.69;5410249;32;34632;-73
2023/10/24 06:48:35;;;;;;;;;;;;;;;17.87;57.80;100032.34;5394943;32;33609;-75
2023/10/24 06:51:37;;;;;;;;;;;;;;;18.04;55.83;100036.41;5424108;32;36099;-72
2023/10/24 06:54:42;;;;;;;;;;;;;;;16.62;60.69;100025.47;5435967;32;34346;-68
2023/10/24 06:57:47;;;;;;;;;;;;;;;16.73;61.00;100014.09;5430747;32;34190;-67
2023/10/24 07:00:52;;;;;;;;;;;;;;;17.73;58.25;100013.09;5421378;32;34212;-72
2023/10/24 07:03:57;;;;;;;;;;;;;;;18.55;55.15;99995.28;5435226;32;36437;-68
2023/10/24 07:06:59;;;;;;;;;;;;;;;16.77;59.78;100008.47;5420084;32;34187;-77
2023/10/24 07:10:01;;;;;;;;;;;;;;;16.23;62.26;100008.69;5417528;32;34178;-69
2023/10/24 07:13:03;;;;;;;;;;;;;;;15.58;65.77;99999.81;5434811;32;34515;-68
2023/10/24 07:16:14;;;;;;;;;;;;;;;15.56;66.04;100005.22;5431565;32;34196;-67
2023/10/24 07:19:19;;;;;;;;;;;;;;;17.03;60.56;99995.16;5433459;32;34906;-69
2023/10/24 07:22:21;;;;;;;;;;;;;;;16.72;62.18;99997.34;5412902;32;35469;-69
2023/10/24 07:25:24;;;;;;;;;;;;;;;17.71;58.56;100005.25;5438478;32;35742;-74
2023/10/24 07:28:28;;;;;;;;;;;;;;;16.50;61.59;100016.56;5422626;32;34351;-70
2023/10/24 07:31:30;;;;;;;;;;;;;;;15.43;67.31;100007.81;5386962;32;34236;-71
2023/10/24 07:34:35;;;;;;;;;;;;;;;16.83;62.40;100006.34;5400737;32;34418;-78
2023/10/24 07:37:37;;;;;;;;;;;;;;;16.07;64.13;100013.34;5392940;32;36402;-68
2023/10/24 07:40:39;;;;;;;;;;;;;;;15.92;65.83;99999.31;5393838;32;36157;-69
2023/10/24 07:43:44;;;;;;;;;;;;;;;15.70;65.85;100013.13;5392278;32;34266;-74
2023/10/24 07:46:47;;;;;;;;;;;;;;;15.77;65.83;99996.84;5371583;32;33205;-73
2023/10/24 07:49:49;;;;;;;;;;;;;;;15.64;66.03;99984.41;5384169;32;34555;-72
2023/10/24 07:52:51;;;;;;;;;;;;;;;15.61;67.54;99986.37;5377087;32;33513;-69
2023/10/24 07:55:53;;;;;;;;;;;;;;;16.15;65.02;99979.19;5397005;32;34865;-73
2023/10/24 07:58:56;;;;;;;;;;;;;;;17.47;60.84;99986.59;5388927;32;33979;-71
2023/10/24 08:01:58;;;;;;;;;;;;;;;17.73;59.66;99975.88;5388811;32;34089;-68
2023/10/24 08:05:00;;;;;;;;;;;;;;;16.81;62.34;99976.41;5376361;32;35515;-72
2023/10/24 08:08:03;;;;;;;;;;;;;;;17.03;62.32;99976.56;5389665;32;35863;-77
2023/10/24 08:11:05;;;;;;;;;;;;;;;17.17;62.22;99968.44;5397230;32;34381;-66
2023/10/24 08:14:07;;;;;;;;;;;;;;;17.39;61.18;99964.22;5386747;32;34662;-68
2023/10/24 08:17:09;;;;;;;;;;;;;;;16.41;64.90;99963.28;5396889;32;36055;-67
2023/10/24 08:20:11;;;;;;;;;;;;;;;16.35;64.33;99964.56;5394822;32;35668;-70
2023/10/24 08:23:13;;;;;;;;;;;;;;;16.63;63.27;99965.28;5383858;32;34322;-77
2023/10/24 08:26:16;;;;;;;;;;;;;;;16.67;64.07;99972.91;5393441;32;35209;-72
2023/10/24 08:29:17;;;;;;;;;;;;;;;16.55;64.67;99973.78;5389350;32;34051;-74
2023/10/24 08:32:19;;;;;;;;;;;;;;;16.71;62.86;99982.38;5385965;32;36042;-69
2023/10/24 08:35:22;;;;;;;;;;;;;;;16.40;64.42;99988.09;5389280;32;33358;-70
2023/10/24 08:38:24;;;;;;;;;;;;;;;16.63;64.40;99974.09;5392625;32;34247;-72
2023/10/24 08:41:26;;;;;;;;;;;;;;;17.77;60.26;99975.50;5382922;32;34702;-67
2023/10/24 08:44:28;;;;;;;;;;;;;;;17.91;60.01;99963.84;5393575;32;34081;-69
2023/10/24 08:47:30;;;;;;;;;;;;;;;18.83;56.65;99970.00;5376046;32;35308;-68
2023/10/24 08:50:33;;;;;;;;;;;;;;;17.74;59.32;99957.16;5374425;32;34266;-74
2023/10/24 08:53:35;;;;;;;;;;;;;;;17.79;59.81;99944.38;5391442;32;35819;-70
2023/10/24 08:56:37;;;;;;;;;;;;;;;18.00;59.42;99956.97;5393850;32;34268;-73
2023/10/24 08:59:39;;;;;;;;;;;;;;;18.87;57.38;99953.66;5377814;32;34964;-75
2023/10/24 09:02:46;;;;;;;;;;;;;;;18.22;59.17;99951.69;5363083;32;34190;-70
2023/10/24 09:05:48;;;;;;;;;;;;;;;17.51;61.50;99956.16;5386362;32;35666;-69
2023/10/24 09:08:51;;;;;;;;;;;;;;;18.13;59.44;99952.41;5391066;32;35322;-75
2023/10/24 09:11:54;;;;;;;;;;;;;;;17.01;64.19;99951.97;5380241;32;36186;-70
2023/10/24 09:14:56;;;;;;;;;;;;;;;17.96;61.41;99947.53;5391553;32;34393;-76
2023/10/24 09:17:58;;;;;;;;;;;;;;;18.21;60.51;99930.53;5380624;32;35488;-74
2023/10/24 09:21:00;;;;;;;;;;;;;;;18.64;59.30;99923.53;5378335;32;36366;-76
2023/10/24 09:24:05;;;;;;;;;;;;;;;18.41;60.09;99914.69;5386584;32;34172;-67
2023/10/24 09:27:07;;;;;;;;;;;;;;;17.94;60.64;99904.28;5398595;32;34219;-80
2023/10/24 09:30:12;;;;;;;;;;;;;;;18.41;59.82;99908.53;5375862;32;34192;-79
2023/10/24 09:33:14;;;;;;;;;;;;;;;19.19;57.77;99902.22;5388303;32;35418;-75
2023/10/24 09:36:23;;;;;;;;;;;;;;;19.93;55.17;99905.78;5370568;32;34892;-72
2023/10/24 09:39:25;;;;;;;;;;;;;;;20.55;53.62;99901.34;5390473;32;33994;-71
2023/10/24 09:42:28;;;;;;;;;;;;;;;20.44;53.73;99904.91;5392013;32;34431;-70
2023/10/24 09:45:36;;;;;;;;;;;;;;;19.44;57.09;99914.38;5389566;32;34172;-71
2023/10/24 09:48:38;;;;;;;;;;;;;;;19.99;55.31;99910.59;5388951;32;34277;-69
2023/10/24 09:51:40;;;;;;;;;;;;;;;20.54;53.15;99908.50;5395165;32;37999;-68
2023/10/24 09:54:42;;;;;;;;;;;;;;;20.83;52.34;99916.59;5394025;32;34739;-69
2023/10/24 09:57:48;;;;;;;;;;;;;;;19.65;55.68;99911.78;5383396;32;34598;-76
2023/10/24 10:00:50;;;;;;;;;;;;;;;19.97;55.89;99915.22;5386664;32;34647;-73
2023/10/24 10:03:53;;;;;;;;;;;;;;;20.70;53.74;99893.78;5382935;32;35420;-76
2023/10/24 10:06:55;;;;;;;;;;;;;;;21.29;51.52;99872.37;5374648;32;34676;-68
2023/10/24 10:10:04;;;;;;;;;;;;;;;21.04;52.54;99880.91;5380820;32;35372;-78
2023/10/24 10:13:08;;;;;;;;;;;;;;;20.81;53.01;99886.50;5381036;32;34215;-71
2023/10/24 10:16:14;;;;;;;;;;;;;;;20.54;54.27;99868.47;5375365;32;34900;-69
2023/10/24 10:19:35;;;;;;;;;;;;;;;21.49;52.00;99857.16;5390051;32;34178;-71
2023/10/24 10:22:45;;;;;;;;;;;;;;;22.65;48.12;99847.91;5395215;32;35330;-71
2023/10/24 10:25:56;;;;;;;;;;;;;;;22.08;48.94;99826.59;5392215;32;36188;-69
2023/10/24 10:29:10;;;;;;;;;;;;;;;21.97;48.62;99842.00;5392417;32;35000;-70
2023/10/24 10:32:16;;;;;;;;;;;;;;;21.31;50.73;99832.13;5395954;32;34253;-69
2023/10/24 10:36:07;;;;;;;;;;;;;;;21.35;50.87;99821.03;5386125;32;35746;-72
2023/10/24 10:39:10;;;;;;;;;;;;;;;21.36;50.85;99817.34;5384348;32;36312;-72
2023/10/24 10:42:31;;;;;;;;;;;;;;;20.73;53.28;99830.25;5368179;32;35251;-69
2023/10/24 10:45:33;;;;;;;;;;;;;;;20.59;53.59;99833.31;5393648;32;34530;-70
2023/10/24 10:48:36;;;;;;;;;;;;;;;19.99;55.36;99825.25;5390808;32;35409;-84
2023/10/24 10:51:39;;;;;;;;;;;;;;;20.64;54.25;99808.88;5385919;32;35476;-74
2023/10/24 10:54:48;;;;;;;;;;;;;;;21.23;52.11;99807.94;5387318;32;34331;-69
2023/10/24 10:58:11;;;;;;;;;;;;;;;21.75;49.94;99803.91;5386696;32;34379;-77
2023/10/24 11:01:16;;;;;;;;;;;;;;;21.37;51.28;99805.69;5379434;32;34252;-69
2023/10/24 11:04:18;;;;;;;;;;;;;;;20.71;55.87;99813.53;5382927;32;34151;-72
2023/10/24 11:07:40;;;;;;;;;;;;;;;21.10;51.57;99816.22;5387296;32;35934;-69
2023/10/24 11:10:55;;;;;;;;;;;;;;;20.63;53.49;99808.06;5388826;32;35363;-67
2023/10/24 11:14:16;;;;;;;;;;;;;;;22.12;49.25;99811.13;5386556;32;36098;-68
2023/10/24 11:17:18;;;;;;;;;;;;;;;21.67;50.56;99813.66;5382942;32;36480;-68
2023/10/24 11:20:20;;;;;;;;;;;;;;;21.42;53.27;99815.94;5382670;32;35453;-71
2023/10/24 11:23:25;;;;;;;;;;;;;;;21.52;50.70;99818.63;5396147;32;33518;-68
2023/10/24 11:26:27;;;;;;;;;;;;;;;21.84;49.92;99821.78;5391630;32;34765;-72
2023/10/24 11:29:30;;;;;;;;;;;;;;;21.24;52.18;99817.63;5384610;32;35062;-77
2023/10/24 11:32:33;;;;;;;;;;;;;;;22.21;49.39;99814.75;5395700;32;35348;-72
2023/10/24 11:35:35;;;;;;;;;;;;;;;21.85;50.31;99825.28;5374958;32;36497;-83
2023/10/24 11:38:37;;;;;;;;;;;;;;;21.42;51.92;99825.81;5379380;32;34830;-71
2023/10/24 11:41:40;;;;;;;;;;;;;;;21.13;52.57;99823.13;5372911;32;34414;-75
2023/10/24 11:44:42;;;;;;;;;;;;;;;21.37;52.52;99802.16;5389257;32;34216;-69
2023/10/24 11:47:44;;;;;;;;;;;;;;;21.16;53.09;99804.13;5391179;32;34224;-80
2023/10/24 11:50:46;;;;;;;;;;;;;;;21.90;51.15;99806.97;5391062;32;34959;-77
2023/10/24 11:53:48;;;;;;;;;;;;;;;21.41;52.42;99819.63;5377769;32;34317;-68
2023/10/24 11:56:50;;;;;;;;;;;;;;;21.67;51.69;99813.66;5391649;32;34609;-69
2023/10/24 11:59:54;;;;;;;;;;;;;;;21.37;52.47;99818.19;5386505;32;35638;-77
2023/10/24 12:03:04;;;;;;;;;;;;;;;21.79;50.99;99813.34;5400056;32;34027;-72
2023/10/24 12:06:08;;;;;;;;;;;;;;;21.92;51.02;99813.00;5399329;32;35375;-69
2023/10/24 12:09:10;;;;;;;;;;;;;;;21.76;51.42;99807.41;5393538;32;35420;-70
2023/10/24 12:12:16;;;;;;;;;;;;;;;21.85;51.24;99796.69;5397029;32;34844;-76
2023/10/24 12:15:18;;;;;;;;;;;;;;;21.44;52.86;99787.22;5371394;32;36502;-78
2023/10/24 12:18:22;;;;;;;;;;;;;;;21.80;51.36;99793.63;5399039;32;36481;-80
2023/10/24 12:21:24;;;;;;;;;;;;;;;21.73;51.80;99780.97;5383873;32;34691;-70
2023/10/24 12:24:26;;;;;;;;;;;;;;;21.02;53.94;99776.88;5393245;32;34799;-73
2023/10/24 12:27:28;;;;;;;;;;;;;;;21.75;51.60;99757.59;5394584;32;37165;-68
2023/10/24 12:30:30;;;;;;;;;;;;;;;21.16;53.50;99748.03;5396928;32;34216;-69
2023/10/24 12:33:32;;;;;;;;;;;;;;;21.05;54.38;99751.69;5388848;32;34212;-73
2023/10/24 12:36:34;;;;;;;;;;;;;;;21.28;54.42;99760.25;5398631;32;34531;-69
2023/10/24 12:39:38;;;;;;;;;;;;;;;21.20;54.92;99768.12;5395049;32;35438;-75
2023/10/24 12:42:41;;;;;;;;;;;;;;;21.55;53.39;99773.72;5394010;32;36257;-74
2023/10/24 12:45:43;;;;;;;;;;;;;;;21.51;52.56;99772.31;5369767;32;34272;-74
2023/10/24 12:48:49;;;;;;;;;;;;;;;21.94;51.63;99772.72;5395610;32;37249;-73
2023/10/24 12:52:03;;;;;;;;;;;;;;;22.41;49.94;99773.47;5384648;32;34144;-76
2023/10/24 12:55:05;;;;;;;;;;;;;;;22.03;51.00;99759.31;5393974;32;35805;-75
2023/10/24 12:58:10;;;;;;;;;;;;;;;21.45;53.22;99764.87;5401128;32;34726;-76
2023/10/24 13:01:12;;;;;;;;;;;;;;;21.27;53.35;99763.91;5372741;32;34286;-72
2023/10/24 13:04:14;;;;;;;;;;;;;;;22.03;50.94;99759.31;5377694;32;35749;-70
2023/10/24 13:07:17;;;;;;;;;;;;;;;21.81;51.56;99765.88;5385863;32;35590;-70
2023/10/24 13:10:19;;;;;;;;;;;;;;;21.80;52.28;99756.16;5387507;32;34344;-69
2023/10/24 13:13:21;;;;;;;;;;;;;;;20.98;54.98;99754.06;5388594;32;35567;-85
2023/10/24 13:16:23;;;;;;;;;;;;;;;21.80;52.57;99748.16;5384408;32;34305;-72
2023/10/24 13:19:25;;;;;;;;;;;;;;;22.37;53.23;99758.72;5389238;32;35528;-71
2023/10/24 13:22:27;;;;;;;;;;;;;;;22.49;53.14;99773.59;5370684;32;35011;-73
2023/10/24 13:25:29;;;;;;;;;;;;;;;22.23;54.54;99770.78;5359834;32;34636;-71
2023/10/24 13:28:31;;;;;;;;;;;;;;;22.03;55.67;99764.66;5387105;32;35258;-72
2023/10/24 13:31:36;;;;;;;;;;;;;;;21.99;54.49;99763.28;5368653;32;34349;-72
2023/10/24 13:34:38;;;;;;;;;;;;;;;21.55;56.66;99760.34;5385433;32;34920;-70
2023/10/24 13:38:00;;;;;;;;;;;;;;;21.48;57.04;99759.22;5396653;32;35133;-74
2023/10/24 13:41:03;;;;;;;;;;;;;;;21.63;56.88;99755.09;5396118;32;34409;-73
2023/10/24 13:44:05;;;;;;;;;;;;;;;21.58;56.94;99757.37;5383091;32;35397;-69
2023/10/24 13:47:08;;;;;;;;;;;;;;;21.45;57.78;99754.19;5384523;32;35467;-73
2023/10/24 13:50:10;;;;;;;;;;;;;;;21.18;58.83;99762.06;5394144;32;34939;-76
2023/10/24 13:53:13;;;;;;;;;;;;;;;21.62;59.20;99755.25;5381043;32;35306;-73
2023/10/24 13:56:16;;;;;;;;;;;;;;;20.76;60.81;99717.00;5396120;32;34969;-71
2023/10/24 13:59:18;;;;;;;;;;;;;;;21.06;60.92;99714.16;5392104;32;34413;-71
2023/10/24 14:02:21;;;;;;;;;;;;;;;21.24;60.75;99721.41;5428293;32;35359;-73
2023/10/24 14:05:25;;;;;;;;;;;;;;;19.94;64.72;99718.09;5429019;32;34375;-70
2023/10/24 14:08:27;;;;;;;;;;;;;;;19.75;66.35;99716.22;5414932;32;34288;-70
2023/10/24 14:11:29;;;;;;;;;;;;;;;19.97;66.10;99711.69;5426496;32;35136;-74
2023/10/24 14:14:32;;;;;;;;;;;;;;;19.82;65.92;99691.69;5421234;32;35440;-77
2023/10/24 14:17:34;;;;;;;;;;;;;;;19.69;66.92;99683.94;5416841;32;34781;-74
2023/10/24 14:20:36;;;;;;;;;;;;;;;20.06;65.28;99680.66;5431344;32;35791;-73
2023/10/24 14:23:38;;;;;;;;;;;;;;;19.73;66.83;99678.19;5436238;32;35018;-72
2023/10/24 14:26:40;;;;;;;;;;;;;;;18.96;70.84;99668.97;5430756;32;34785;-73
2023/10/24 14:29:42;;;;;;;;;;;;;;;19.12;70.38;99658.66;5423107;32;36234;-76
2023/10/24 14:32:44;;;;;;;;;;;;;;;19.66;67.84;99629.06;5424893;32;34950;-74
2023/10/24 14:35:46;;;;;;;;;;;;;;;20.23;65.83;99624.81;5429711;32;34896;-73
2023/10/24 14:38:48;;;;;;;;;;;;;;;19.76;67.62;99626.41;5425756;32;35284;-72
2023/10/24 14:41:51;;;;;;;;;;;;;;;19.71;68.61;99620.69;5423611;32;34874;-76
2023/10/24 14:44:53;;;;;;;;;;;;;;;20.08;66.64;99590.66;5435626;32;34377;-73
2023/10/24 14:47:55;;;;;;;;;;;;;;;19.32;70.00;99582.34;5434023;32;34259;-77
2023/10/24 14:50:57;;;;;;;;;;;;;;;19.75;68.13;99563.41;5414409;32;35387;-73
2023/10/24 14:53:59;;;;;;;;;;;;;;;19.85;68.22;99571.44;5442717;32;34211;-73
2023/10/24 14:57:01;;;;;;;;;;;;;;;18.89;70.83;99556.81;5441993;32;35005;-73
2023/10/24 15:00:06;;;;;;;;;;;;;;;19.56;68.45;99542.88;5438266;32;34299;-77
2023/10/24 15:03:08;;;;;;;;;;;;;;;19.37;69.45;99540.16;5423155;32;34969;-78
2023/10/24 15:06:10;;;;;;;;;;;;;;;19.25;68.83;99527.94;5445305;32;35106;-73
2023/10/24 15:09:14;;;;;;;;;;;;;;;19.41;68.55;99530.94;5437652;32;33364;-73
2023/10/24 15:12:16;;;;;;;;;;;;;;;19.33;69.02;99547.59;5438219;32;34821;-73
2023/10/24 15:15:18;;;;;;;;;;;;;;;18.98;70.50;99555.16;5443155;32;36771;-72
2023/10/24 15:18:20;;;;;;;;;;;;;;;17.97;73.32;99587.66;5424520;32;34903;-72
2023/10/24 15:21:23;;;;;;;;;;;;;;;17.85;74.88;99576.22;5411699;32;34347;-74
2023/10/24 15:24:25;;;;;;;;;;;;;;;18.28;71.43;99586.78;5441897;32;35228;-78
2023/10/24 15:27:27;;;;;;;;;;;;;;;18.37;70.96;99583.38;5442465;32;34859;-73
2023/10/24 15:30:29;;;;;;;;;;;;;;;18.36;70.68;99586.16;5436149;32;34751;-74
2023/10/24 15:33:31;;;;;;;;;;;;;;;17.90;73.73;99589.13;5428107;32;34698;-72
2023/10/24 15:36:35;;;;;;;;;;;;;;;17.90;74.46;99575.81;5440360;32;34769;-76
2023/10/24 15:39:39;;;;;;;;;;;;;;;18.01;72.84;99554.53;5442822;32;35069;-78
2023/10/24 15:42:41;;;;;;;;;;;;;;;17.90;72.65;99541.28;5425539;32;35447;-77
2023/10/24 15:45:43;;;;;;;;;;;;;;;18.83;69.77;99560.00;5439888;32;35312;-74
2023/10/24 15:48:45;;;;;;;;;;;;;;;18.73;68.67;99546.63;5447613;32;35486;-73